sensor_id;sensor_type;location;lat;lon;timestamp;pressure;altitude;pressure_sealevel;temperature;humidity
73551;BME280;61816;53.582;10.096;2023-07-13T00:02:15;54436.44;;;-144.73;100.00
73551;BME280;61816;53.582;10.096;2023-07-13T00:04:41;54428.22;;;-144.73;100.00
73551;BME280;61816;53.582;10.096;2023-07-13T00:07:07;54428.22;;;-144.73;100.00
73551;BME280;61816;53.582;10.096;2023-07-13T00:09:32;54399.50;;;-144.73;100.00
73551;BME280;61816;53.582;10.096;2023-07-13T00:11:58;54442.59;;;-144.73;100.00
73551;BME280;61816;53.582;10.096;2023-07-13T00:14:25;54428.22;;;-144.73;100.00
73551;BME280;61816;53.582;10.096;2023-07-13T00:16:51;54417.97;;;-144.73;100.00
73551;BME280;61816;53.582;10.096;2023-07-13T00:19:17;54420.00;;;-144.73;100.00
73551;BME280;61816;53.582;10.096;2023-07-13T00:21:42;54432.31;;;-144.73;100.00
73551;BME280;61816;53.582;10.096;2023-07-13T00:24:17;54432.31;;;-144.73;100.00
73551;BME280;61816;53.582;10.096;2023-07-13T00:26:48;54407.69;;;-144.73;100.00
73551;BME280;61816;53.582;10.096;2023-07-13T00:29:13;54407.69;;;-144.73;100.00
73551;BME280;61816;53.582;10.096;2023-07-13T00:31:39;54407.69;;;-144.73;100.00
73551;BME280;61816;53.582;10.096;2023-07-13T00:34:05;54442.59;;;-144.73;100.00
73551;BME280;61816;53.582;10.096;2023-07-13T00:36:31;54477.47;;;-144.73;100.00
73551;BME280;61816;53.582;10.096;2023-07-13T00:38:56;54448.75;;;-144.73;100.00
73551;BME280;61816;53.582;10.096;2023-07-13T00:41:22;54444.66;;;-144.73;100.00
73551;BME280;61816;53.582;10.096;2023-07-13T00:43:47;54432.31;;;-144.73;100.00
73551;BME280;61816;53.582;10.096;2023-07-13T00:46:22;54411.81;;;-144.73;100.00
73551;BME280;61816;53.582;10.096;2023-07-13T00:48:49;54456.97;;;-144.73;100.00
73551;BME280;61816;53.582;10.096;2023-07-13T00:51:21;54440.53;;;-144.73;100.00
73551;BME280;61816;53.582;10.096;2023-07-13T00:53:49;54407.69;;;-144.73;100.00
73551;BME280;61816;53.582;10.096;2023-07-13T00:56:16;54395.38;;;-144.73;100.00
73551;BME280;61816;53.582;10.096;2023-07-13T00:58:41;54444.66;;;-144.73;100.00
73551;BME280;61816;53.582;10.096;2023-07-13T01:01:07;54465.16;;;-144.73;100.00
73551;BME280;61816;53.582;10.096;2023-07-13T01:03:34;54420.00;;;-144.73;100.00
73551;BME280;61816;53.582;10.096;2023-07-13T01:06:00;54452.84;;;-144.73;100.00
73551;BME280;61816;53.582;10.096;2023-07-13T01:08:25;54481.59;;;-144.73;100.00
73551;BME280;61816;53.582;10.096;2023-07-13T01:10:53;54420.00;;;-144.73;100.00
73551;BME280;61816;53.582;10.096;2023-07-13T01:13:18;54420.00;;;-144.73;100.00
73551;BME280;61816;53.582;10.096;2023-07-13T01:15:46;54444.66;;;-144.73;100.00
73551;BME280;61816;53.582;10.096;2023-07-13T01:18:16;54436.44;;;-144.73;100.00
73551;BME280;61816;53.582;10.096;2023-07-13T01:20:57;54440.53;;;-144.73;100.00
73551;BME280;61816;53.582;10.096;2023-07-13T01:23:24;54477.47;;;-144.73;100.00
73551;BME280;61816;53.582;10.096;2023-07-13T01:25:50;54415.91;;;-144.73;100.00
73551;BME280;61816;53.582;10.096;2023-07-13T01:28:16;54387.19;;;-144.73;100.00
73551;BME280;61816;53.582;10.096;2023-07-13T01:30:43;54411.81;;;-144.73;100.00
73551;BME280;61816;53.582;10.096;2023-07-13T01:33:12;54430.28;;;-144.73;100.00
73551;BME280;61816;53.582;10.096;2023-07-13T01:35:37;54452.84;;;-144.73;100.00
73551;BME280;61816;53.582;10.096;2023-07-13T01:38:04;54444.66;;;-144.73;100.00
73551;BME280;61816;53.582;10.096;2023-07-13T01:40:29;54440.53;;;-144.73;100.00
73551;BME280;61816;53.582;10.096;2023-07-13T01:42:55;54420.00;;;-144.73;100.00
73551;BME280;61816;53.582;10.096;2023-07-13T01:45:21;54413.84;;;-144.73;100.00
73551;BME280;61816;53.582;10.096;2023-07-13T01:47:46;54469.28;;;-144.73;100.00
73551;BME280;61816;53.582;10.096;2023-07-13T01:50:11;54420.00;;;-144.73;100.00
73551;BME280;61816;53.582;10.096;2023-07-13T01:52:37;54434.38;;;-144.73;100.00
73551;BME280;61816;53.582;10.096;2023-07-13T01:55:02;54411.81;;;-144.73;100.00
73551;BME280;61816;53.582;10.096;2023-07-13T01:57:28;54407.69;;;-144.73;100.00
73551;BME280;61816;53.582;10.096;2023-07-13T01:59:53;54473.38;;;-144.73;100.00
73551;BME280;61816;53.582;10.096;2023-07-13T02:02:18;54436.44;;;-144.73;100.00
73551;BME280;61816;53.582;10.096;2023-07-13T02:04:44;54424.13;;;-144.73;100.00
73551;BME280;61816;53.582;10.096;2023-07-13T02:07:10;54428.22;;;-144.73;100.00
73551;BME280;61816;53.582;10.096;2023-07-13T02:09:35;54463.13;;;-144.73;100.00
73551;BME280;61816;53.582;10.096;2023-07-13T02:12:01;54395.38;;;-144.73;100.00
73551;BME280;61816;53.582;10.096;2023-07-13T02:14:26;54415.91;;;-144.73;100.00
73551;BME280;61816;53.582;10.096;2023-07-13T02:16:51;54424.13;;;-144.73;100.00
73551;BME280;61816;53.582;10.096;2023-07-13T02:19:17;54452.84;;;-144.73;100.00
73551;BME280;61816;53.582;10.096;2023-07-13T02:21:42;54450.81;;;-144.73;100.00
73551;BME280;61816;53.582;10.096;2023-07-13T02:24:08;54440.53;;;-144.73;100.00
73551;BME280;61816;53.582;10.096;2023-07-13T02:26:34;54430.28;;;-144.73;100.00
73551;BME280;61816;53.582;10.096;2023-07-13T02:28:59;54424.13;;;-144.73;100.00
73551;BME280;61816;53.582;10.096;2023-07-13T02:31:25;54428.22;;;-144.73;100.00
73551;BME280;61816;53.582;10.096;2023-07-13T02:33:50;54452.84;;;-144.73;100.00
73551;BME280;61816;53.582;10.096;2023-07-13T02:36:16;54446.69;;;-144.73;100.00
73551;BME280;61816;53.582;10.096;2023-07-13T02:38:41;54448.75;;;-144.73;100.00
73551;BME280;61816;53.582;10.096;2023-07-13T02:41:08;54436.44;;;-144.73;100.00
73551;BME280;61816;53.582;10.096;2023-07-13T02:43:35;54448.75;;;-144.73;100.00
73551;BME280;61816;53.582;10.096;2023-07-13T02:46:01;54452.84;;;-144.73;100.00
73551;BME280;61816;53.582;10.096;2023-07-13T02:48:32;54465.16;;;-144.73;100.00
73551;BME280;61816;53.582;10.096;2023-07-13T02:50:57;54432.31;;;-144.73;100.00
73551;BME280;61816;53.582;10.096;2023-07-13T02:53:22;54448.75;;;-144.73;100.00
73551;BME280;61816;53.582;10.096;2023-07-13T02:55:48;54448.75;;;-144.73;100.00
73551;BME280;61816;53.582;10.096;2023-07-13T02:58:13;54448.75;;;-144.73;100.00
73551;BME280;61816;53.582;10.096;2023-07-13T03:00:43;54420.00;;;-144.73;100.00
73551;BME280;61816;53.582;10.096;2023-07-13T03:03:09;54444.66;;;-144.73;100.00
73551;BME280;61816;53.582;10.096;2023-07-13T03:05:34;54444.66;;;-144.73;100.00
73551;BME280;61816;53.582;10.096;2023-07-13T03:07:59;54424.13;;;-144.73;100.00
73551;BME280;61816;53.582;10.096;2023-07-13T03:10:25;54436.44;;;-144.73;100.00
73551;BME280;61816;53.582;10.096;2023-07-13T03:12:50;54444.66;;;-144.73;100.00
73551;BME280;61816;53.582;10.096;2023-07-13T03:15:16;54415.91;;;-144.73;100.00
73551;BME280;61816;53.582;10.096;2023-07-13T03:17:41;54432.31;;;-144.73;100.00
73551;BME280;61816;53.582;10.096;2023-07-13T03:20:07;54440.53;;;-144.73;100.00
73551;BME280;61816;53.582;10.096;2023-07-13T03:22:32;54448.75;;;-144.73;100.00
73551;BME280;61816;53.582;10.096;2023-07-13T03:24:58;54477.47;;;-144.73;100.00
73551;BME280;61816;53.582;10.096;2023-07-13T03:27:23;54448.75;;;-144.73;100.00
73551;BME280;61816;53.582;10.096;2023-07-13T03:29:48;54448.75;;;-144.73;100.00
73551;BME280;61816;53.582;10.096;2023-07-13T03:32:14;54465.16;;;-144.73;100.00
73551;BME280;61816;53.582;10.096;2023-07-13T03:34:39;54436.44;;;-144.73;100.00
73551;BME280;61816;53.582;10.096;2023-07-13T03:37:05;54489.81;;;-144.73;100.00
73551;BME280;61816;53.582;10.096;2023-07-13T03:39:30;54407.69;;;-144.73;100.00
73551;BME280;61816;53.582;10.096;2023-07-13T03:41:56;54452.84;;;-144.73;100.00
73551;BME280;61816;53.582;10.096;2023-07-13T03:44:21;54452.84;;;-144.73;100.00
73551;BME280;61816;53.582;10.096;2023-07-13T03:46:47;54442.59;;;-144.73;100.00
73551;BME280;61816;53.582;10.096;2023-07-13T03:49:12;54444.66;;;-144.73;100.00
73551;BME280;61816;53.582;10.096;2023-07-13T03:51:38;54456.97;;;-144.73;100.00
73551;BME280;61816;53.582;10.096;2023-07-13T03:54:03;54477.47;;;-144.73;100.00
73551;BME280;61816;53.582;10.096;2023-07-13T03:56:29;54440.53;;;-144.73;100.00
73551;BME280;61816;53.582;10.096;2023-07-13T03:58:56;54430.28;;;-144.73;100.00
73551;BME280;61816;53.582;10.096;2023-07-13T04:01:23;54448.75;;;-144.73;100.00
73551;BME280;61816;53.582;10.096;2023-07-13T04:03:48;54448.75;;;-144.73;100.00
73551;BME280;61816;53.582;10.096;2023-07-13T04:06:22;54424.13;;;-144.73;100.00
73551;BME280;61816;53.582;10.096;2023-07-13T04:08:51;54444.66;;;-144.73;100.00
73551;BME280;61816;53.582;10.096;2023-07-13T04:11:18;54432.31;;;-144.73;100.00
73551;BME280;61816;53.582;10.096;2023-07-13T04:13:44;54456.97;;;-144.73;100.00
73551;BME280;61816;53.582;10.096;2023-07-13T04:16:09;54424.13;;;-144.73;100.00
73551;BME280;61816;53.582;10.096;2023-07-13T04:18:35;54448.75;;;-144.73;100.00
73551;BME280;61816;53.582;10.096;2023-07-13T04:21:00;54485.69;;;-144.73;100.00
73551;BME280;61816;53.582;10.096;2023-07-13T04:23:25;54469.28;;;-144.73;100.00
73551;BME280;61816;53.582;10.096;2023-07-13T04:25:52;54465.16;;;-144.73;100.00
73551;BME280;61816;53.582;10.096;2023-07-13T04:28:19;54493.91;;;-144.73;100.00
73551;BME280;61816;53.582;10.096;2023-07-13T04:30:45;54461.06;;;-144.73;100.00
73551;BME280;61816;53.582;10.096;2023-07-13T04:33:10;54436.44;;;-144.73;100.00
73551;BME280;61816;53.582;10.096;2023-07-13T04:35:36;54450.81;;;-144.73;100.00
73551;BME280;61816;53.582;10.096;2023-07-13T04:38:39;54395.38;;;-144.73;100.00
73551;BME280;61816;53.582;10.096;2023-07-13T04:41:05;54444.66;;;-144.73;100.00
73551;BME280;61816;53.582;10.096;2023-07-13T04:43:31;54465.16;;;-144.73;100.00
73551;BME280;61816;53.582;10.096;2023-07-13T04:46:03;54442.59;;;-144.73;100.00
73551;BME280;61816;53.582;10.096;2023-07-13T04:48:28;54448.75;;;-144.73;100.00
73551;BME280;61816;53.582;10.096;2023-07-13T04:50:55;54469.28;;;-144.73;100.00
73551;BME280;61816;53.582;10.096;2023-07-13T04:53:22;54444.66;;;-144.73;100.00
73551;BME280;61816;53.582;10.096;2023-07-13T04:55:47;54465.16;;;-144.73;100.00
73551;BME280;61816;53.582;10.096;2023-07-13T04:58:12;54465.16;;;-144.73;100.00
73551;BME280;61816;53.582;10.096;2023-07-13T05:00:38;54428.22;;;-144.73;100.00
73551;BME280;61816;53.582;10.096;2023-07-13T05:03:04;54487.75;;;-144.73;100.00
73551;BME280;61816;53.582;10.096;2023-07-13T05:05:30;54450.81;;;-144.73;100.00
73551;BME280;61816;53.582;10.096;2023-07-13T05:07:55;54426.16;;;-144.73;100.00
73551;BME280;61816;53.582;10.096;2023-07-13T05:10:21;54448.75;;;-144.73;100.00
73551;BME280;61816;53.582;10.096;2023-07-13T05:12:47;54454.91;;;-144.73;100.00
73551;BME280;61816;53.582;10.096;2023-07-13T05:15:13;54456.97;;;-144.73;100.00
73551;BME280;61816;53.582;10.096;2023-07-13T05:17:38;54489.81;;;-144.73;100.00
73551;BME280;61816;53.582;10.096;2023-07-13T05:20:08;54440.53;;;-144.73;100.00
73551;BME280;61816;53.582;10.096;2023-07-13T05:22:33;54485.69;;;-144.73;100.00
73551;BME280;61816;53.582;10.096;2023-07-13T05:25:01;54448.75;;;-144.73;100.00
73551;BME280;61816;53.582;10.096;2023-07-13T05:27:27;54424.13;;;-144.73;100.00
73551;BME280;61816;53.582;10.096;2023-07-13T05:29:52;54444.66;;;-144.73;100.00
73551;BME280;61816;53.582;10.096;2023-07-13T05:32:18;54420.00;;;-144.73;100.00
73551;BME280;61816;53.582;10.096;2023-07-13T05:34:43;54440.53;;;-144.73;100.00
73551;BME280;61816;53.582;10.096;2023-07-13T05:37:09;54436.44;;;-144.73;100.00
73551;BME280;61816;53.582;10.096;2023-07-13T05:39:34;54440.53;;;-144.73;100.00
73551;BME280;61816;53.582;10.096;2023-07-13T05:42:00;54407.69;;;-144.73;100.00
73551;BME280;61816;53.582;10.096;2023-07-13T05:44:25;54452.84;;;-144.73;100.00
73551;BME280;61816;53.582;10.096;2023-07-13T05:46:51;54452.84;;;-144.73;100.00
73551;BME280;61816;53.582;10.096;2023-07-13T05:49:16;54428.22;;;-144.73;100.00
73551;BME280;61816;53.582;10.096;2023-07-13T05:51:41;54444.66;;;-144.73;100.00
73551;BME280;61816;53.582;10.096;2023-07-13T05:54:07;54452.84;;;-144.73;100.00
73551;BME280;61816;53.582;10.096;2023-07-13T05:56:32;54424.13;;;-144.73;100.00
73551;BME280;61816;53.582;10.096;2023-07-13T05:58:57;54448.75;;;-144.73;100.00
73551;BME280;61816;53.582;10.096;2023-07-13T06:01:23;54448.75;;;-144.73;100.00
73551;BME280;61816;53.582;10.096;2023-07-13T06:03:49;54446.69;;;-144.73;100.00
73551;BME280;61816;53.582;10.096;2023-07-13T06:06:15;54432.31;;;-144.73;100.00
73551;BME280;61816;53.582;10.096;2023-07-13T06:08:40;54448.75;;;-144.73;100.00
73551;BME280;61816;53.582;10.096;2023-07-13T06:11:13;54446.69;;;-144.73;100.00
73551;BME280;61816;53.582;10.096;2023-07-13T06:13:39;54436.44;;;-144.73;100.00
73551;BME280;61816;53.582;10.096;2023-07-13T06:16:04;54469.28;;;-144.73;100.00
73551;BME280;61816;53.582;10.096;2023-07-13T06:18:32;54428.22;;;-144.73;100.00
73551;BME280;61816;53.582;10.096;2023-07-13T06:20:57;54444.66;;;-144.73;100.00
73551;BME280;61816;53.582;10.096;2023-07-13T06:23:24;54424.13;;;-144.73;100.00
73551;BME280;61816;53.582;10.096;2023-07-13T06:25:49;54461.06;;;-144.73;100.00
73551;BME280;61816;53.582;10.096;2023-07-13T06:28:15;54424.13;;;-144.73;100.00
73551;BME280;61816;53.582;10.096;2023-07-13T06:30:40;54428.22;;;-144.73;100.00
73551;BME280;61816;53.582;10.096;2023-07-13T06:33:05;54444.66;;;-144.73;100.00
73551;BME280;61816;53.582;10.096;2023-07-13T06:35:31;54444.66;;;-144.73;100.00
73551;BME280;61816;53.582;10.096;2023-07-13T06:37:56;54498.00;;;-144.73;100.00
73551;BME280;61816;53.582;10.096;2023-07-13T06:40:22;54411.81;;;-144.73;100.00
73551;BME280;61816;53.582;10.096;2023-07-13T06:42:47;54432.31;;;-144.73;100.00
73551;BME280;61816;53.582;10.096;2023-07-13T06:45:12;54432.31;;;-144.73;100.00
73551;BME280;61816;53.582;10.096;2023-07-13T06:47:38;54430.28;;;-144.73;100.00
73551;BME280;61816;53.582;10.096;2023-07-13T06:50:03;54436.44;;;-144.73;100.00
73551;BME280;61816;53.582;10.096;2023-07-13T06:52:29;54454.91;;;-144.73;100.00
73551;BME280;61816;53.582;10.096;2023-07-13T06:54:54;54432.31;;;-144.73;100.00
73551;BME280;61816;53.582;10.096;2023-07-13T06:57:19;54434.38;;;-144.73;100.00
73551;BME280;61816;53.582;10.096;2023-07-13T06:59:45;54469.28;;;-144.73;100.00
73551;BME280;61816;53.582;10.096;2023-07-13T07:02:10;54454.91;;;-144.73;100.00
73551;BME280;61816;53.582;10.096;2023-07-13T07:04:36;54417.97;;;-144.73;100.00
73551;BME280;61816;53.582;10.096;2023-07-13T07:07:01;54481.59;;;-144.73;100.00
73551;BME280;61816;53.582;10.096;2023-07-13T07:09:26;54436.44;;;-144.73;100.00
73551;BME280;61816;53.582;10.096;2023-07-13T07:11:52;54444.66;;;-144.73;100.00
73551;BME280;61816;53.582;10.096;2023-07-13T07:14:17;54422.06;;;-144.73;100.00
73551;BME280;61816;53.582;10.096;2023-07-13T07:16:43;54432.31;;;-144.73;100.00
73551;BME280;61816;53.582;10.096;2023-07-13T07:19:08;54444.66;;;-144.73;100.00
73551;BME280;61816;53.582;10.096;2023-07-13T07:21:33;54432.31;;;-144.73;100.00
73551;BME280;61816;53.582;10.096;2023-07-13T07:23:59;54415.91;;;-144.73;100.00
73551;BME280;61816;53.582;10.096;2023-07-13T07:26:25;54428.22;;;-144.73;100.00
73551;BME280;61816;53.582;10.096;2023-07-13T07:28:51;54436.44;;;-144.73;100.00
73551;BME280;61816;53.582;10.096;2023-07-13T07:31:16;54498.00;;;-144.73;100.00
73551;BME280;61816;53.582;10.096;2023-07-13T07:33:41;54395.38;;;-144.73;100.00
73551;BME280;61816;53.582;10.096;2023-07-13T07:36:07;54411.81;;;-144.73;100.00
73551;BME280;61816;53.582;10.096;2023-07-13T07:38:32;54397.44;;;-144.73;100.00
73551;BME280;61816;53.582;10.096;2023-07-13T07:40:57;54387.19;;;-144.73;100.00
73551;BME280;61816;53.582;10.096;2023-07-13T07:43:23;54452.84;;;-144.73;100.00
73551;BME280;61816;53.582;10.096;2023-07-13T07:45:48;54413.84;;;-144.73;100.00
73551;BME280;61816;53.582;10.096;2023-07-13T07:48:14;54434.38;;;-144.73;100.00
73551;BME280;61816;53.582;10.096;2023-07-13T07:50:39;54420.00;;;-144.73;100.00
73551;BME280;61816;53.582;10.096;2023-07-13T07:53:06;54436.44;;;-144.73;100.00
73551;BME280;61816;53.582;10.096;2023-07-13T07:55:35;54420.00;;;-144.73;100.00
73551;BME280;61816;53.582;10.096;2023-07-13T07:58:01;54415.91;;;-144.73;100.00
73551;BME280;61816;53.582;10.096;2023-07-13T08:00:26;54395.38;;;-144.73;100.00
73551;BME280;61816;53.582;10.096;2023-07-13T08:02:54;54407.69;;;-144.73;100.00
73551;BME280;61816;53.582;10.096;2023-07-13T08:05:20;54446.69;;;-144.73;100.00
73551;BME280;61816;53.582;10.096;2023-07-13T08:07:45;54415.91;;;-144.73;100.00
73551;BME280;61816;53.582;10.096;2023-07-13T08:10:10;54389.22;;;-144.73;100.00
73551;BME280;61816;53.582;10.096;2023-07-13T08:12:39;54407.69;;;-144.73;100.00
73551;BME280;61816;53.582;10.096;2023-07-13T08:15:08;54385.13;;;-144.73;100.00
73551;BME280;61816;53.582;10.096;2023-07-13T08:17:34;54432.31;;;-144.73;100.00
73551;BME280;61816;53.582;10.096;2023-07-13T08:19:59;54420.00;;;-144.73;100.00
73551;BME280;61816;53.582;10.096;2023-07-13T08:22:25;54434.38;;;-144.73;100.00
73551;BME280;61816;53.582;10.096;2023-07-13T08:24:50;54432.31;;;-144.73;100.00
73551;BME280;61816;53.582;10.096;2023-07-13T08:27:21;54432.31;;;-144.73;100.00
73551;BME280;61816;53.582;10.096;2023-07-13T08:29:48;54378.97;;;-144.73;100.00
73551;BME280;61816;53.582;10.096;2023-07-13T08:32:13;54378.97;;;-144.73;100.00
73551;BME280;61816;53.582;10.096;2023-07-13T08:34:39;54372.81;;;-144.73;100.00
73551;BME280;61816;53.582;10.096;2023-07-13T08:37:05;54376.91;;;-144.73;100.00
73551;BME280;61816;53.582;10.096;2023-07-13T08:39:31;54420.00;;;-144.73;100.00
73551;BME280;61816;53.582;10.096;2023-07-13T08:42:03;54436.44;;;-144.73;100.00
73551;BME280;61816;53.582;10.096;2023-07-13T08:47:09;54335.88;;;-144.73;100.00
73551;BME280;61816;53.582;10.096;2023-07-13T08:49:35;54389.22;;;-144.73;100.00
73551;BME280;61816;53.582;10.096;2023-07-13T08:52:16;54399.50;;;-144.73;100.00
73551;BME280;61816;53.582;10.096;2023-07-13T08:54:46;54409.75;;;-144.73;100.00
73551;BME280;61816;53.582;10.096;2023-07-13T08:57:17;54399.50;;;-144.73;100.00
73551;BME280;61816;53.582;10.096;2023-07-13T08:59:44;54420.00;;;-144.73;100.00
73551;BME280;61816;53.582;10.096;2023-07-13T09:02:25;54424.13;;;-144.73;100.00
73551;BME280;61816;53.582;10.096;2023-07-13T09:10:30;54424.13;;;-144.73;100.00
73551;BME280;61816;53.582;10.096;2023-07-13T09:13:24;54444.66;;;-144.73;100.00
73551;BME280;61816;53.582;10.096;2023-07-13T09:15:53;54362.53;;;-144.73;100.00
73551;BME280;61816;53.582;10.096;2023-07-13T09:18:47;54422.06;;;-144.73;100.00
73551;BME280;61816;53.582;10.096;2023-07-13T09:21:17;54374.84;;;-144.73;100.00
73551;BME280;61816;53.582;10.096;2023-07-13T09:23:47;54370.75;;;-144.73;100.00
73551;BME280;61816;53.582;10.096;2023-07-13T09:26:17;54395.38;;;-144.73;95.43
73551;BME280;61816;53.582;10.096;2023-07-13T09:28:45;54411.81;;;-144.73;98.72
73551;BME280;61816;53.582;10.096;2023-07-13T09:31:16;54440.53;;;-144.73;100.00
73551;BME280;61816;53.582;10.096;2023-07-13T09:33:42;54432.31;;;-144.73;100.00
73551;BME280;61816;53.582;10.096;2023-07-13T09:36:18;54411.81;;;-144.73;100.00
73551;BME280;61816;53.582;10.096;2023-07-13T09:38:45;54329.72;;;-144.73;98.10
73551;BME280;61816;53.582;10.096;2023-07-13T09:41:31;54337.91;;;-144.73;93.55
73551;BME280;61816;53.582;10.096;2023-07-13T09:44:12;54383.06;;;-144.73;93.29
73551;BME280;61816;53.582;10.096;2023-07-13T09:47:01;54387.19;;;-144.73;91.46
73551;BME280;61816;53.582;10.096;2023-07-13T09:49:37;54387.19;;;-144.73;86.74
73551;BME280;61816;53.582;10.096;2023-07-13T09:52:06;54342.03;;;-144.73;87.16
73551;BME280;61816;53.582;10.096;2023-07-13T09:54:36;54391.28;;;-144.73;89.32
73551;BME280;61816;53.582;10.096;2023-07-13T09:57:03;54407.69;;;-144.73;86.31
73551;BME280;61816;53.582;10.096;2023-07-13T09:59:35;54420.00;;;-144.73;85.96
73551;BME280;61816;53.582;10.096;2023-07-13T10:02:01;54374.84;;;-144.73;83.71
73551;BME280;61816;53.582;10.096;2023-07-13T10:04:31;54407.69;;;-144.73;87.29
73551;BME280;61816;53.582;10.096;2023-07-13T10:07:06;54395.38;;;-144.73;91.26
73551;BME280;61816;53.582;10.096;2023-07-13T10:09:32;54415.91;;;-144.73;85.92
73551;BME280;61816;53.582;10.096;2023-07-13T10:11:57;54378.97;;;-144.73;86.26
73551;BME280;61816;53.582;10.096;2023-07-13T10:14:23;54387.19;;;-144.73;84.56
73551;BME280;61816;53.582;10.096;2023-07-13T10:16:55;54415.91;;;-144.73;86.72
73551;BME280;61816;53.582;10.096;2023-07-13T10:19:25;54420.00;;;-144.73;86.20
73551;BME280;61816;53.582;10.096;2023-07-13T10:22:14;54428.22;;;-144.73;85.92
73551;BME280;61816;53.582;10.096;2023-07-13T10:24:43;54432.31;;;-144.73;84.53
73551;BME280;61816;53.582;10.096;2023-07-13T10:27:16;54395.38;;;-144.73;85.37
73551;BME280;61816;53.582;10.096;2023-07-13T10:29:46;54350.22;;;-144.73;83.12
73551;BME280;61816;53.582;10.096;2023-07-13T10:32:13;54370.75;;;-144.73;76.37
73551;BME280;61816;53.582;10.096;2023-07-13T10:34:44;54362.53;;;-144.73;72.74
73551;BME280;61816;53.582;10.096;2023-07-13T10:37:19;54378.97;;;-144.73;69.51
73551;BME280;61816;53.582;10.096;2023-07-13T10:39:46;54337.91;;;-144.73;71.08
73551;BME280;61816;53.582;10.096;2023-07-13T10:42:16;54333.81;;;-144.73;68.96
73551;BME280;61816;53.582;10.096;2023-07-13T10:44:44;54352.28;;;-144.73;65.69
73551;BME280;61816;53.582;10.096;2023-07-13T10:47:14;54366.66;;;-144.73;68.62
73551;BME280;61816;53.582;10.096;2023-07-13T10:49:41;54372.81;;;-144.73;67.73
73551;BME280;61816;53.582;10.096;2023-07-13T10:55:37;54327.66;;;-144.73;60.49
73551;BME280;61816;53.582;10.096;2023-07-13T10:58:18;54374.84;;;-144.73;60.23
73551;BME280;61816;53.582;10.096;2023-07-13T11:01:03;54350.22;;;-144.73;58.55
73551;BME280;61816;53.582;10.096;2023-07-13T11:03:29;54350.22;;;-144.73;60.59
73551;BME280;61816;53.582;10.096;2023-07-13T11:18:48;54321.50;;;-144.73;54.51
73551;BME280;61816;53.582;10.096;2023-07-13T11:21:22;54346.13;;;-144.73;56.25
73551;BME280;61816;53.582;10.096;2023-07-13T11:23:53;54313.28;;;-144.73;56.56
73551;BME280;61816;53.582;10.096;2023-07-13T11:31:58;54350.22;;;-144.73;55.08
73551;BME280;61816;53.582;10.096;2023-07-13T11:34:34;54292.75;;;-144.73;54.27
73551;BME280;61816;53.582;10.096;2023-07-13T11:37:01;54346.13;;;-144.73;50.95
73551;BME280;61816;53.582;10.096;2023-07-13T11:39:31;54321.50;;;-144.73;55.34
73551;BME280;61816;53.582;10.096;2023-07-13T11:42:00;54317.38;;;-144.73;57.08
73551;BME280;61816;53.582;10.096;2023-07-13T11:44:29;54391.28;;;-144.73;56.83
73551;BME280;61816;53.582;10.096;2023-07-13T11:46:57;54407.69;;;-144.73;53.93
73551;BME280;61816;53.582;10.096;2023-07-13T11:49:26;54366.66;;;-144.73;55.15
73551;BME280;61816;53.582;10.096;2023-07-13T11:51:52;54362.53;;;-144.73;54.06
73551;BME280;61816;53.582;10.096;2023-07-13T11:54:28;54387.19;;;-144.73;54.35
73551;BME280;61816;53.582;10.096;2023-07-13T11:57:00;54374.84;;;-144.73;55.52
73551;BME280;61816;53.582;10.096;2023-07-13T11:59:27;54358.44;;;-144.73;54.68
73551;BME280;61816;53.582;10.096;2023-07-13T12:01:55;54362.53;;;-144.73;56.26
73551;BME280;61816;53.582;10.096;2023-07-13T12:04:25;54362.53;;;-144.73;56.73
73551;BME280;61816;53.582;10.096;2023-07-13T12:06:58;54362.53;;;-144.73;58.93
73551;BME280;61816;53.582;10.096;2023-07-13T12:09:26;54374.84;;;-144.73;60.43
73551;BME280;61816;53.582;10.096;2023-07-13T12:11:52;54383.06;;;-144.73;58.74
73551;BME280;61816;53.582;10.096;2023-07-13T12:14:18;54376.91;;;-144.73;60.61
73551;BME280;61816;53.582;10.096;2023-07-13T12:16:47;54411.81;;;-144.73;61.75
73551;BME280;61816;53.582;10.096;2023-07-13T12:19:20;54420.00;;;-144.73;63.18
73551;BME280;61816;53.582;10.096;2023-07-13T12:21:47;54378.97;;;-144.73;66.12
73551;BME280;61816;53.582;10.096;2023-07-13T12:24:20;54407.69;;;-144.73;74.99
73551;BME280;61816;53.582;10.096;2023-07-13T12:27:03;54415.91;;;-144.73;100.00
73551;BME280;61816;53.582;10.096;2023-07-13T12:29:32;54446.69;;;-144.73;100.00
73551;BME280;61816;53.582;10.096;2023-07-13T12:31:57;54407.69;;;-144.73;100.00
73551;BME280;61816;53.582;10.096;2023-07-13T12:34:24;54461.06;;;-144.73;100.00
73551;BME280;61816;53.582;10.096;2023-07-13T12:36:59;54395.38;;;-144.73;100.00
73551;BME280;61816;53.582;10.096;2023-07-13T12:39:35;54461.06;;;-144.73;100.00
73551;BME280;61816;53.582;10.096;2023-07-13T12:42:18;54391.28;;;-144.73;100.00
73551;BME280;61816;53.582;10.096;2023-07-13T12:44:46;54432.31;;;-144.73;100.00
73551;BME280;61816;53.582;10.096;2023-07-13T12:47:13;54424.13;;;-144.73;100.00
73551;BME280;61816;53.582;10.096;2023-07-13T12:49:49;54407.69;;;-144.73;100.00
73551;BME280;61816;53.582;10.096;2023-07-13T12:52:24;54440.53;;;-144.73;100.00
73551;BME280;61816;53.582;10.096;2023-07-13T12:55:04;54387.19;;;-144.73;100.00
73551;BME280;61816;53.582;10.096;2023-07-13T12:57:30;54415.91;;;-144.73;100.00